createdAt,value
2019-06-26T00:02:12.441Z,19.90
2019-06-26T00:04:41.036Z,19.90
2019-06-26T00:07:09.633Z,19.90
2019-06-26T00:09:38.235Z,20.10
2019-06-26T00:12:06.817Z,20.10
2019-06-26T00:14:38.589Z,20.00
2019-06-26T00:17:05.631Z,20.10
2019-06-26T00:19:34.204Z,20.10
2019-06-26T00:22:02.847Z,20.10
2019-06-26T00:24:31.402Z,20.10
2019-06-26T00:26:59.984Z,20.00
2019-06-26T00:29:28.589Z,20.10
2019-06-26T00:31:57.185Z,20.00
2019-06-26T00:34:25.718Z,20.10
2019-06-26T00:36:54.338Z,20.20
2019-06-26T00:39:22.931Z,20.10
2019-06-26T00:41:51.578Z,20.10
2019-06-26T00:44:20.265Z,20.00
2019-06-26T00:46:48.881Z,20.00
2019-06-26T00:49:17.433Z,19.90
2019-06-26T00:51:46.048Z,20.00
2019-06-26T00:54:14.617Z,20.00
2019-06-26T00:56:43.213Z,19.90
2019-06-26T00:59:11.812Z,19.90
2019-06-26T01:01:40.408Z,19.80
2019-06-26T01:04:10.609Z,19.90
2019-06-26T01:06:45.186Z,19.80
2019-06-26T01:09:14.789Z,19.80
2019-06-26T01:11:44.083Z,19.70
2019-06-26T01:14:12.690Z,19.70
2019-06-26T01:16:41.381Z,19.60
2019-06-26T01:19:10.001Z,19.60
2019-06-26T01:21:38.588Z,19.60
2019-06-26T01:24:07.186Z,19.60
2019-06-26T01:26:36.164Z,19.50
2019-06-26T01:29:04.889Z,19.50
2019-06-26T01:31:33.462Z,19.50
2019-06-26T01:34:02.041Z,20.00
2019-06-26T01:36:30.645Z,20.80
2019-06-26T01:38:59.275Z,21.60
2019-06-26T01:41:27.812Z,22.20
2019-06-26T01:43:56.494Z,22.00
2019-06-26T01:46:25.038Z,21.00
2019-06-26T01:48:53.601Z,20.30
2019-06-26T01:51:22.233Z,20.00
2019-06-26T01:53:50.794Z,19.90
2019-06-26T01:56:19.430Z,19.80
2019-06-26T01:58:48.043Z,19.80
2019-06-26T02:01:16.617Z,19.70
2019-06-26T02:03:45.216Z,19.60
2019-06-26T02:06:13.834Z,19.50
2019-06-26T02:08:43.148Z,19.40
2019-06-26T02:11:11.814Z,19.50
2019-06-26T02:13:40.338Z,19.50
2019-06-26T02:16:08.908Z,19.30
2019-06-26T02:18:39.189Z,19.30
2019-06-26T02:21:07.772Z,19.20
2019-06-26T02:23:36.345Z,19.10
2019-06-26T02:26:05.117Z,19.20
2019-06-26T02:28:33.753Z,19.20
2019-06-26T02:31:02.277Z,19.20
2019-06-26T02:33:30.880Z,19.30
2019-06-26T02:35:59.437Z,19.40
2019-06-26T02:38:28.044Z,19.50
2019-06-26T02:40:56.674Z,19.80
2019-06-26T02:43:25.296Z,19.80
2019-06-26T02:45:53.877Z,19.60
2019-06-26T02:48:22.481Z,19.60
2019-06-26T02:50:51.078Z,19.80
2019-06-26T02:53:19.658Z,19.70
2019-06-26T02:55:48.274Z,19.90
2019-06-26T02:58:16.835Z,19.80
2019-06-26T03:00:45.400Z,19.90
2019-06-26T03:03:14.038Z,19.90
2019-06-26T03:05:42.623Z,19.90
2019-06-26T03:08:11.173Z,19.90
2019-06-26T03:10:39.791Z,19.90
2019-06-26T03:13:08.360Z,19.90
2019-06-26T03:15:36.921Z,20.00
2019-06-26T03:18:05.515Z,20.00
2019-06-26T03:20:43.008Z,20.00
2019-06-26T03:23:11.584Z,20.00
2019-06-26T03:25:40.160Z,20.10
2019-06-26T03:28:08.748Z,20.00
2019-06-26T03:30:37.319Z,20.00
2019-06-26T03:33:05.910Z,19.90
2019-06-26T03:35:34.509Z,19.90
2019-06-26T03:38:03.069Z,20.10
2019-06-26T03:40:31.676Z,20.10
2019-06-26T03:43:00.228Z,19.80
2019-06-26T03:45:29.117Z,19.70
2019-06-26T03:47:57.718Z,19.80
2019-06-26T03:50:26.452Z,19.90
2019-06-26T03:52:55.214Z,19.90
2019-06-26T03:55:23.952Z,20.00
2019-06-26T03:57:52.527Z,19.90
2019-06-26T04:00:38.773Z,20.20
2019-06-26T04:03:07.405Z,20.40
2019-06-26T04:05:36.119Z,20.50
2019-06-26T04:08:05.156Z,20.90
2019-06-26T04:10:35.262Z,21.00
2019-06-26T04:13:04.596Z,21.10
2019-06-26T04:15:42.112Z,21.20
2019-06-26T04:18:03.683Z,21.10
2019-06-26T04:20:32.252Z,21.10
2019-06-26T04:23:00.832Z,21.10
2019-06-26T04:25:29.444Z,21.10
2019-06-26T04:27:58.013Z,21.50
2019-06-26T04:30:26.666Z,21.80
2019-06-26T04:32:55.268Z,22.10
2019-06-26T04:35:23.848Z,22.50
2019-06-26T04:37:52.421Z,22.50
2019-06-26T04:40:21.063Z,22.50
2019-06-26T04:42:49.656Z,22.70
2019-06-26T04:45:18.386Z,22.70
2019-06-26T04:47:47.605Z,22.50
2019-06-26T04:50:17.153Z,22.40
2019-06-26T04:52:45.736Z,22.30
2019-06-26T04:55:14.470Z,22.00
2019-06-26T04:57:43.056Z,21.80
2019-06-26T05:00:13.593Z,21.70
2019-06-26T05:02:42.150Z,21.80
2019-06-26T05:05:12.161Z,21.90
2019-06-26T05:07:40.803Z,22.10
2019-06-26T05:10:10.167Z,22.30
2019-06-26T05:12:38.797Z,22.90
2019-06-26T05:15:08.689Z,23.80
2019-06-26T05:17:37.354Z,25.50
2019-06-26T05:20:07.966Z,25.60
2019-06-26T05:22:36.634Z,25.00
2019-06-26T05:25:08.537Z,24.30
2019-06-26T05:27:37.145Z,23.50
2019-06-26T05:30:08.020Z,23.90
2019-06-26T05:32:36.620Z,25.10
2019-06-26T05:35:07.026Z,25.20
2019-06-26T05:37:35.613Z,24.80
2019-06-26T05:40:07.275Z,24.00
2019-06-26T05:42:35.908Z,23.50
2019-06-26T05:45:05.646Z,23.60
2019-06-26T05:47:34.213Z,23.80
2019-06-26T05:50:03.177Z,24.00
2019-06-26T05:52:31.785Z,24.00
2019-06-26T05:55:00.357Z,24.00
2019-06-26T05:57:28.956Z,23.90
2019-06-26T05:59:57.620Z,23.90
2019-06-26T06:02:26.265Z,24.10
2019-06-26T06:04:54.826Z,24.10
2019-06-26T06:07:23.440Z,24.00
2019-06-26T06:09:52.092Z,23.80
2019-06-26T06:12:20.662Z,24.00
2019-06-26T06:14:49.228Z,23.80
2019-06-26T06:17:17.879Z,23.70
2019-06-26T06:19:46.440Z,23.90
2019-06-26T06:22:15.028Z,24.10
2019-06-26T06:24:43.619Z,24.10
2019-06-26T06:27:12.247Z,24.30
2019-06-26T06:29:40.838Z,24.50
2019-06-26T06:32:09.476Z,25.00
2019-06-26T06:34:38.041Z,25.10
2019-06-26T06:37:06.628Z,25.40
2019-06-26T06:39:35.237Z,26.00
2019-06-26T06:42:03.829Z,26.70
2019-06-26T06:44:32.416Z,26.80
2019-06-26T06:47:04.298Z,26.50
2019-06-26T06:49:31.319Z,26.40
2019-06-26T06:51:59.859Z,26.60
2019-06-26T06:54:28.445Z,26.50
2019-06-26T06:56:57.036Z,27.00
2019-06-26T06:59:25.625Z,27.00
2019-06-26T07:01:54.201Z,26.80
2019-06-26T07:04:22.772Z,26.80
2019-06-26T07:06:51.343Z,26.90
2019-06-26T07:09:19.960Z,27.20
2019-06-26T07:11:48.517Z,27.10
2019-06-26T07:14:17.141Z,27.10
2019-06-26T07:16:45.724Z,26.80
2019-06-26T07:19:14.303Z,26.60
2019-06-26T07:21:42.921Z,26.80
2019-06-26T07:24:11.476Z,26.80
2019-06-26T07:26:40.100Z,26.60
2019-06-26T07:29:08.646Z,26.90
2019-06-26T07:31:38.577Z,27.20
2019-06-26T07:34:07.384Z,27.60
2019-06-26T07:36:35.941Z,27.90
2019-06-26T07:39:06.075Z,28.10
2019-06-26T07:41:34.668Z,28.40
2019-06-26T07:44:03.246Z,28.60
2019-06-26T07:46:31.853Z,29.00
2019-06-26T07:49:00.450Z,29.00
2019-06-26T07:51:29.021Z,29.00
2019-06-26T07:53:57.627Z,29.00
2019-06-26T07:56:26.215Z,29.10
2019-06-26T07:58:54.782Z,29.20
2019-06-26T08:01:23.396Z,29.20
2019-06-26T08:03:51.973Z,29.20
2019-06-26T08:06:20.557Z,29.30
2019-06-26T08:08:49.165Z,29.30
2019-06-26T08:11:17.747Z,29.80
2019-06-26T08:13:46.308Z,29.80
2019-06-26T08:16:14.930Z,29.90
2019-06-26T08:18:43.512Z,30.00
2019-06-26T08:21:13.108Z,30.00
2019-06-26T08:23:41.869Z,30.20
2019-06-26T08:26:10.541Z,30.00
2019-06-26T08:28:39.152Z,29.80
2019-06-26T08:31:07.706Z,29.90
2019-06-26T08:33:36.331Z,30.20
2019-06-26T08:36:04.929Z,29.90
2019-06-26T08:38:33.511Z,30.10
2019-06-26T08:41:02.091Z,30.10
2019-06-26T08:43:31.592Z,30.40
2019-06-26T08:46:00.252Z,30.30
2019-06-26T08:48:39.684Z,30.30
2019-06-26T08:50:59.093Z,30.50
2019-06-26T08:53:27.723Z,30.60
2019-06-26T08:55:56.296Z,30.80
2019-06-26T08:58:25.650Z,30.60
2019-06-26T09:00:54.246Z,30.70
2019-06-26T09:03:22.848Z,31.20
2019-06-26T09:05:51.482Z,31.10
2019-06-26T09:08:20.122Z,30.80
2019-06-26T09:10:48.720Z,30.30
2019-06-26T09:13:17.332Z,29.80
2019-06-26T09:15:49.549Z,30.50
2019-06-26T09:18:16.157Z,30.50
2019-06-26T09:20:44.723Z,30.30
2019-06-26T09:23:13.333Z,29.80
2019-06-26T09:25:41.939Z,29.60
2019-06-26T09:28:10.521Z,29.70
2019-06-26T09:30:39.109Z,29.60
2019-06-26T09:33:07.710Z,29.60
2019-06-26T09:35:36.281Z,29.70
2019-06-26T09:38:04.984Z,29.80
2019-06-26T09:40:33.533Z,29.80
2019-06-26T09:43:02.102Z,29.90
2019-06-26T09:45:30.717Z,30.50
2019-06-26T09:47:59.382Z,30.40
2019-06-26T09:50:27.959Z,30.30
2019-06-26T09:52:56.560Z,30.70
2019-06-26T09:55:25.143Z,31.00
2019-06-26T09:57:53.718Z,31.00
2019-06-26T10:00:22.989Z,31.00
2019-06-26T10:02:51.501Z,31.10
2019-06-26T10:05:20.461Z,30.70
2019-06-26T10:07:49.170Z,30.30
2019-06-26T10:10:18.896Z,30.10
2019-06-26T10:12:47.492Z,30.50
2019-06-26T10:15:16.293Z,30.70
2019-06-26T10:17:44.877Z,30.50
2019-06-26T10:20:14.325Z,30.40
2019-06-26T10:22:42.902Z,30.20
2019-06-26T10:25:11.856Z,30.20
2019-06-26T10:27:40.631Z,30.20
2019-06-26T10:30:09.561Z,30.20
2019-06-26T10:32:38.140Z,30.20
2019-06-26T10:35:07.098Z,30.20
2019-06-26T10:37:35.657Z,30.00
2019-06-26T10:40:06.114Z,30.00
2019-06-26T10:42:35.309Z,29.70
2019-06-26T10:45:06.732Z,30.00
2019-06-26T10:47:35.333Z,30.20
2019-06-26T10:50:05.335Z,30.10
2019-06-26T10:52:34.247Z,29.70
2019-06-26T10:55:04.008Z,29.90
2019-06-26T10:57:32.532Z,30.00
2019-06-26T11:00:01.157Z,30.10
2019-06-26T11:02:29.753Z,30.10
2019-06-26T11:04:58.320Z,29.90
2019-06-26T11:07:26.927Z,30.00
2019-06-26T11:09:55.521Z,30.10
2019-06-26T11:12:24.081Z,30.00
2019-06-26T11:14:52.664Z,29.70
2019-06-26T11:17:21.242Z,29.50
2019-06-26T11:19:49.809Z,29.70
2019-06-26T11:22:18.432Z,29.60
2019-06-26T11:24:47.002Z,29.70
2019-06-26T11:27:15.565Z,30.00
2019-06-26T11:29:44.162Z,30.60
2019-06-26T11:32:12.758Z,30.50
2019-06-26T11:34:41.323Z,30.60
2019-06-26T11:37:09.980Z,30.60
2019-06-26T11:39:38.575Z,30.60
2019-06-26T11:42:08.178Z,30.20
2019-06-26T11:44:36.730Z,30.40
2019-06-26T11:47:05.324Z,30.00
2019-06-26T11:49:34.009Z,29.90
2019-06-26T11:52:02.586Z,29.90
2019-06-26T11:54:31.181Z,30.10
2019-06-26T11:56:59.789Z,30.00
2019-06-26T11:59:28.402Z,29.90
2019-06-26T12:01:56.972Z,29.90
2019-06-26T12:04:25.531Z,29.70
2019-06-26T12:06:54.114Z,29.60
2019-06-26T12:09:22.717Z,29.70
2019-06-26T12:11:51.285Z,29.80
2019-06-26T12:14:19.903Z,29.50
2019-06-26T12:16:48.546Z,29.20
2019-06-26T12:19:20.895Z,29.10
2019-06-26T12:21:47.341Z,29.20
2019-06-26T12:24:15.946Z,29.50
2019-06-26T12:26:44.529Z,29.60
2019-06-26T12:29:13.113Z,29.50
2019-06-26T12:31:41.731Z,29.70
2019-06-26T12:34:10.313Z,29.80
2019-06-26T12:36:38.900Z,29.80
2019-06-26T12:39:08.272Z,29.60
2019-06-26T12:41:36.888Z,29.70
2019-06-26T12:44:05.477Z,29.60
2019-06-26T12:46:34.056Z,29.50
2019-06-26T12:49:02.662Z,29.30
2019-06-26T12:51:33.300Z,29.20
2019-06-26T12:54:01.865Z,29.20
2019-06-26T12:56:30.645Z,29.30
2019-06-26T12:59:00.075Z,29.30
2019-06-26T13:01:28.918Z,29.00
2019-06-26T13:03:57.501Z,28.90
2019-06-26T13:06:26.089Z,29.00
2019-06-26T13:08:54.721Z,29.00
2019-06-26T13:11:23.354Z,29.10
2019-06-26T13:14:02.146Z,29.20
2019-06-26T13:16:22.130Z,29.30
2019-06-26T13:18:50.698Z,29.20
2019-06-26T13:21:19.361Z,29.30
2019-06-26T13:23:47.969Z,29.00
2019-06-26T13:26:16.561Z,28.90
2019-06-26T13:28:45.148Z,28.90
2019-06-26T13:31:13.733Z,28.90
2019-06-26T13:33:42.330Z,29.00
2019-06-26T13:36:10.893Z,29.00
2019-06-26T13:38:39.493Z,28.90
2019-06-26T13:41:08.066Z,28.90
2019-06-26T13:43:36.642Z,28.80
2019-06-26T13:46:05.237Z,28.70
2019-06-26T13:48:33.805Z,28.70
2019-06-26T13:51:09.452Z,28.70
2019-06-26T13:53:32.601Z,28.60
2019-06-26T13:56:01.169Z,28.60
2019-06-26T13:58:29.793Z,28.70
2019-06-26T14:00:58.401Z,28.70
2019-06-26T14:03:26.997Z,28.60
2019-06-26T14:05:55.656Z,28.60
2019-06-26T14:08:24.248Z,28.60
2019-06-26T14:10:52.829Z,28.50
2019-06-26T14:13:21.682Z,28.20
2019-06-26T14:15:50.307Z,28.10
2019-06-26T14:18:18.862Z,28.20
2019-06-26T14:20:47.496Z,28.20
2019-06-26T14:23:16.707Z,28.20
2019-06-26T14:25:45.249Z,28.10
2019-06-26T14:28:13.846Z,28.20
2019-06-26T14:30:43.437Z,28.20
2019-06-26T14:33:12.017Z,28.10
2019-06-26T14:35:40.609Z,28.10
2019-06-26T14:38:09.189Z,28.10
2019-06-26T14:40:37.787Z,28.20
2019-06-26T14:43:06.350Z,28.30
2019-06-26T14:45:34.938Z,28.40
2019-06-26T14:48:03.525Z,28.50
2019-06-26T14:50:32.094Z,28.30
2019-06-26T14:53:00.714Z,28.10
2019-06-26T14:55:29.361Z,28.00
2019-06-26T14:57:57.924Z,28.10
2019-06-26T15:00:26.481Z,28.10
2019-06-26T15:02:55.081Z,28.10
2019-06-26T15:05:23.658Z,28.00
2019-06-26T15:07:52.249Z,28.00
2019-06-26T15:10:20.976Z,27.90
2019-06-26T15:12:49.541Z,28.00
2019-06-26T15:15:19.102Z,28.10
2019-06-26T15:17:47.647Z,28.00
2019-06-26T15:20:17.251Z,28.00
2019-06-26T15:22:45.902Z,28.10
2019-06-26T15:25:17.073Z,28.00
2019-06-26T15:27:45.746Z,27.90
2019-06-26T15:30:15.057Z,27.90
2019-06-26T15:32:43.623Z,27.70
2019-06-26T15:35:12.509Z,27.50
2019-06-26T15:37:44.584Z,27.50
2019-06-26T15:40:13.741Z,27.50
2019-06-26T15:42:41.651Z,27.50
2019-06-26T15:45:10.695Z,27.40
2019-06-26T15:47:39.322Z,27.30
2019-06-26T15:50:10.887Z,27.30
2019-06-26T15:52:39.035Z,27.30
2019-06-26T15:55:08.107Z,27.30
2019-06-26T15:57:36.708Z,27.20
2019-06-26T16:00:08.985Z,27.30
2019-06-26T16:02:37.563Z,27.30
2019-06-26T16:05:09.353Z,27.20
2019-06-26T16:07:37.949Z,27.10
2019-06-26T16:10:07.777Z,27.00
2019-06-26T16:12:36.385Z,26.90
2019-06-26T16:15:06.646Z,26.90
2019-06-26T16:17:36.897Z,26.80
2019-06-26T16:20:08.812Z,26.90
2019-06-26T16:22:37.390Z,26.90
2019-06-26T16:25:06.199Z,26.80
2019-06-26T16:27:34.805Z,26.70
2019-06-26T16:30:04.634Z,26.70
2019-06-26T16:32:33.207Z,26.70
2019-06-26T16:35:01.849Z,26.80
2019-06-26T16:37:30.401Z,26.80
2019-06-26T16:39:59.004Z,26.70
2019-06-26T16:42:27.637Z,26.70
2019-06-26T16:44:56.234Z,26.70
2019-06-26T16:47:24.800Z,26.70
2019-06-26T16:49:53.393Z,26.70
2019-06-26T16:52:21.963Z,26.70
2019-06-26T16:54:50.673Z,26.70
2019-06-26T16:57:19.269Z,26.80
2019-06-26T16:59:47.821Z,26.60
2019-06-26T17:02:16.410Z,26.60
2019-06-26T17:04:45.062Z,26.50
2019-06-26T17:07:13.622Z,26.40
2019-06-26T17:09:44.335Z,26.30
2019-06-26T17:12:12.466Z,26.30
2019-06-26T17:14:41.052Z,26.20
2019-06-26T17:17:09.654Z,26.10
2019-06-26T17:19:38.223Z,26.00
2019-06-26T17:22:06.821Z,26.00
2019-06-26T17:24:35.456Z,25.90
2019-06-26T17:27:04.105Z,25.90
2019-06-26T17:29:32.673Z,25.90
2019-06-26T17:32:01.257Z,25.90
2019-06-26T17:34:29.949Z,26.00
2019-06-26T17:36:58.574Z,26.10
2019-06-26T17:39:27.165Z,26.00
2019-06-26T17:41:55.732Z,26.00
2019-06-26T17:44:24.365Z,26.00
2019-06-26T17:46:52.956Z,25.90
2019-06-26T17:49:21.604Z,25.80
2019-06-26T17:51:50.233Z,25.70
2019-06-26T17:54:18.863Z,25.70
2019-06-26T17:56:47.426Z,25.70
2019-06-26T17:59:17.579Z,25.70
2019-06-26T18:01:46.170Z,25.70
2019-06-26T18:04:14.732Z,25.50
2019-06-26T18:06:43.373Z,25.50
2019-06-26T18:09:12.431Z,25.50
2019-06-26T18:11:41.135Z,25.50
2019-06-26T18:14:09.825Z,25.40
2019-06-26T18:16:38.458Z,25.40
2019-06-26T18:19:07.072Z,25.30
2019-06-26T18:21:35.688Z,25.30
2019-06-26T18:24:04.277Z,25.30
2019-06-26T18:26:32.945Z,25.30
2019-06-26T18:29:01.542Z,25.20
2019-06-26T18:31:30.730Z,25.20
2019-06-26T18:33:59.497Z,25.40
2019-06-26T18:36:28.053Z,25.30
2019-06-26T18:38:56.709Z,25.20
2019-06-26T18:41:25.261Z,25.20
2019-06-26T18:43:53.857Z,25.20
2019-06-26T18:46:24.856Z,25.00
2019-06-26T18:48:52.708Z,24.90
2019-06-26T18:51:21.265Z,24.90
2019-06-26T18:53:53.821Z,24.90
2019-06-26T18:56:20.088Z,24.80
2019-06-26T18:58:48.658Z,24.90
2019-06-26T19:01:17.272Z,24.70
2019-06-26T19:03:45.849Z,24.70
2019-06-26T19:06:14.437Z,24.70
2019-06-26T19:08:43.026Z,24.40
2019-06-26T19:11:11.686Z,24.50
2019-06-26T19:13:40.277Z,24.50
2019-06-26T19:16:08.857Z,24.30
2019-06-26T19:18:37.651Z,24.20
2019-06-26T19:21:06.237Z,24.00
2019-06-26T19:23:34.809Z,24.20
2019-06-26T19:26:03.459Z,24.30
2019-06-26T19:28:32.042Z,24.20
2019-06-26T19:31:00.597Z,24.20
2019-06-26T19:33:29.182Z,24.20
2019-06-26T19:35:57.788Z,24.20
2019-06-26T19:38:26.455Z,24.10
2019-06-26T19:40:55.062Z,23.80
2019-06-26T19:43:23.644Z,23.70
2019-06-26T19:45:52.232Z,23.60
2019-06-26T19:48:20.826Z,23.70
2019-06-26T19:50:49.458Z,23.70
2019-06-26T19:53:18.046Z,23.60
2019-06-26T19:55:46.624Z,23.60
2019-06-26T19:58:15.230Z,23.50
2019-06-26T20:00:43.824Z,23.50
2019-06-26T20:03:12.449Z,23.60
2019-06-26T20:05:41.020Z,23.60
2019-06-26T20:08:09.608Z,23.40
2019-06-26T20:10:38.292Z,23.20
2019-06-26T20:13:06.861Z,23.40
2019-06-26T20:15:35.465Z,23.40
2019-06-26T20:18:04.478Z,23.30
2019-06-26T20:20:33.177Z,23.10
2019-06-26T20:23:01.805Z,22.80
2019-06-26T20:25:30.390Z,22.50
2019-06-26T20:27:58.977Z,22.20
2019-06-26T20:30:30.658Z,21.60
2019-06-26T20:32:59.245Z,21.30
2019-06-26T20:35:27.811Z,21.40
2019-06-26T20:37:56.398Z,21.40
2019-06-26T20:40:24.970Z,21.30
2019-06-26T20:42:53.546Z,21.30
2019-06-26T20:45:22.173Z,21.40
2019-06-26T20:47:50.821Z,21.50
2019-06-26T20:50:19.390Z,21.40
2019-06-26T20:52:47.946Z,21.30
2019-06-26T20:55:16.685Z,21.30
2019-06-26T20:57:45.287Z,21.40
2019-06-26T21:00:14.330Z,21.30
2019-06-26T21:02:42.924Z,21.10
2019-06-26T21:05:11.501Z,21.20
2019-06-26T21:07:40.085Z,21.20
2019-06-26T21:10:09.090Z,21.30
2019-06-26T21:12:37.670Z,21.20
2019-06-26T21:15:07.354Z,21.10
2019-06-26T21:17:36.135Z,21.30
2019-06-26T21:20:06.285Z,21.00
2019-06-26T21:22:35.068Z,21.00
2019-06-26T21:25:17.556Z,21.40
2019-06-26T21:27:35.770Z,21.50
2019-06-26T21:30:05.751Z,21.30
2019-06-26T21:32:34.363Z,21.10
2019-06-26T21:35:03.011Z,21.00
2019-06-26T21:37:31.654Z,21.00
2019-06-26T21:40:00.235Z,20.70
2019-06-26T21:42:28.795Z,20.30
2019-06-26T21:44:57.435Z,20.00
2019-06-26T21:47:26.008Z,20.00
2019-06-26T21:49:54.605Z,20.20
2019-06-26T21:52:23.185Z,20.40
2019-06-26T21:54:51.789Z,20.50
2019-06-26T21:57:20.397Z,20.50
2019-06-26T21:59:48.981Z,20.40
2019-06-26T22:02:17.631Z,20.20
2019-06-26T22:04:46.204Z,20.10
2019-06-26T22:07:14.870Z,20.30
2019-06-26T22:09:43.457Z,20.90
2019-06-26T22:12:12.704Z,20.90
2019-06-26T22:14:41.314Z,20.70
2019-06-26T22:17:09.875Z,20.60
2019-06-26T22:19:38.462Z,20.30
2019-06-26T22:22:07.061Z,20.20
2019-06-26T22:24:35.665Z,20.30
2019-06-26T22:27:04.249Z,20.30
2019-06-26T22:29:32.828Z,20.00
2019-06-26T22:32:01.461Z,19.80
2019-06-26T22:34:30.010Z,19.80
2019-06-26T22:36:58.598Z,20.00
2019-06-26T22:39:27.202Z,19.90
2019-06-26T22:41:55.792Z,19.90
2019-06-26T22:44:24.388Z,19.90
2019-06-26T22:46:52.976Z,19.80
2019-06-26T22:49:21.583Z,20.70
2019-06-26T22:51:50.233Z,20.80
2019-06-26T22:54:19.866Z,20.60
2019-06-26T22:56:49.139Z,20.20
2019-06-26T22:59:17.700Z,20.10
2019-06-26T23:01:46.283Z,20.20
2019-06-26T23:04:14.876Z,20.20
2019-06-26T23:06:43.479Z,20.10
2019-06-26T23:09:12.079Z,20.00
2019-06-26T23:11:40.675Z,19.80
2019-06-26T23:14:09.267Z,19.90
2019-06-26T23:16:37.862Z,20.00
2019-06-26T23:19:06.461Z,20.10
2019-06-26T23:21:35.053Z,20.00
2019-06-26T23:24:03.649Z,19.80
2019-06-26T23:26:32.210Z,19.90
2019-06-26T23:29:00.850Z,19.70
2019-06-26T23:31:29.531Z,19.60
2019-06-26T23:33:58.087Z,19.60
2019-06-26T23:36:26.666Z,19.60
2019-06-26T23:38:55.262Z,19.90
2019-06-26T23:41:23.853Z,20.00
2019-06-26T23:43:52.438Z,20.10
2019-06-26T23:46:21.010Z,20.10
2019-06-26T23:48:49.602Z,20.00
2019-06-26T23:51:18.166Z,19.90
2019-06-26T23:53:46.785Z,19.70
2019-06-26T23:56:15.371Z,19.70
2019-06-26T23:58:43.983Z,19.40
